Time;durP1;ratioP1;P1;durP2;ratioP2;P2;SDS_P1;SDS_P2;PMS_P1;PMS_P2;Temp;Humidity;BMP_temperature;BMP_pressure;BME280_temperature;BME280_humidity;BME280_pressure;Samples;Min_cycle;Max_cycle;Signal;HPM_P1;HPM_P2
2022/11/20 00:00:04;;;;;;;23.83;16.17;;;4.30;99.90;;;;;;4870136;29;20173;-72
2022/11/20 00:02:29;;;;;;;25.50;17.38;;;4.30;99.90;;;;;;4863688;29;20045;-72
2022/11/20 00:04:55;;;;;;;31.02;19.70;;;4.30;99.90;;;;;;4867595;29;20040;-73
2022/11/20 00:07:20;;;;;;;29.63;18.88;;;4.30;99.90;;;;;;4875677;29;20069;-72
2022/11/20 00:09:46;;;;;;;27.80;18.52;;;4.10;99.90;;;;;;4856137;29;20052;-73
2022/11/20 00:12:11;;;;;;;28.00;16.85;;;4.10;99.90;;;;;;4866035;29;20040;-72
2022/11/20 00:14:37;;;;;;;25.25;17.40;;;4.10;99.90;;;;;;4865297;29;20040;-72
2022/11/20 00:17:02;;;;;;;25.70;16.52;;;4.10;99.90;;;;;;4871157;29;20659;-72
2022/11/20 00:19:28;;;;;;;29.60;17.85;;;4.00;99.90;;;;;;4867457;29;20040;-72
2022/11/20 00:21:55;;;;;;;26.52;17.92;;;4.00;99.90;;;;;;4868177;29;20490;-71
2022/11/20 00:24:20;;;;;;;27.85;17.65;;;4.00;99.90;;;;;;4865786;29;20620;-71
2022/11/20 00:26:46;;;;;;;25.65;17.27;;;3.90;99.90;;;;;;4869222;29;20049;-71
2022/11/20 00:29:11;;;;;;;23.55;16.08;;;3.90;99.90;;;;;;4869277;29;20056;-71
2022/11/20 00:31:37;;;;;;;24.58;17.00;;;3.80;99.90;;;;;;4870314;29;20054;-72
2022/11/20 00:34:03;;;;;;;25.80;16.50;;;3.70;99.90;;;;;;4872452;29;20052;-72
2022/11/20 00:36:32;;;;;;;26.70;16.83;;;3.80;99.90;;;;;;4863338;29;20055;-71
2022/11/20 00:38:58;;;;;;;25.38;17.00;;;3.80;99.90;;;;;;4872377;29;20044;-71
2022/11/20 00:41:26;;;;;;;24.70;15.35;;;3.80;99.90;;;;;;4869869;29;20071;-71
2022/11/20 00:43:53;;;;;;;25.27;16.35;;;3.80;99.90;;;;;;4855583;29;20124;-72
2022/11/20 00:46:21;;;;;;;26.40;16.75;;;3.80;99.90;;;;;;4858208;29;20088;-77
2022/11/20 00:48:46;;;;;;;29.23;15.77;;;3.70;99.90;;;;;;4860534;29;20061;-76
2022/11/20 00:51:18;;;;;;;25.45;17.35;;;3.70;99.90;;;;;;4847671;29;20101;-77
2022/11/20 00:53:44;;;;;;;35.40;17.10;;;3.70;99.90;;;;;;4863064;29;20056;-76
2022/11/20 00:56:12;;;;;;;29.15;17.02;;;3.80;99.90;;;;;;4867595;29;20529;-78
2022/11/20 00:58:40;;;;;;;27.98;17.05;;;3.80;99.90;;;;;;4866886;29;20060;-74
2022/11/20 01:01:07;;;;;;;29.65;18.35;;;3.80;99.90;;;;;;4861477;29;20040;-74
2022/11/20 01:03:34;;;;;;;25.63;17.30;;;3.80;99.90;;;;;;4868330;29;20048;-74
2022/11/20 01:06:10;;;;;;;25.15;16.55;;;3.80;99.90;;;;;;4864522;29;20064;-74
2022/11/20 01:08:36;;;;;;;29.77;18.02;;;3.80;99.90;;;;;;4873957;29;20048;-74
2022/11/20 01:11:10;;;;;;;25.90;17.88;;;3.70;99.90;;;;;;4856414;29;20041;-74
2022/11/20 01:13:36;;;;;;;28.08;16.60;;;3.70;99.90;;;;;;4866179;29;20096;-73
2022/11/20 01:16:15;;;;;;;26.75;16.60;;;3.70;99.90;;;;;;4853183;29;20127;-74
2022/11/20 01:18:42;;;;;;;29.55;17.25;;;3.70;99.90;;;;;;4863194;29;20049;-74
2022/11/20 01:21:11;;;;;;;30.70;18.88;;;3.70;99.90;;;;;;4861827;29;20051;-73
2022/11/20 01:23:39;;;;;;;28.58;17.33;;;3.70;99.90;;;;;;4870585;29;20142;-73
2022/11/20 01:26:10;;;;;;;29.17;17.23;;;3.70;99.90;;;;;;4868584;29;20044;-73
2022/11/20 01:28:37;;;;;;;26.50;17.25;;;3.80;99.90;;;;;;4868857;29;20053;-73
2022/11/20 01:31:12;;;;;;;29.40;17.15;;;3.80;99.90;;;;;;4870494;29;20056;-72
2022/11/20 01:33:37;;;;;;;26.33;17.33;;;3.80;99.90;;;;;;4873394;29;20512;-73
2022/11/20 01:36:05;;;;;;;30.88;17.27;;;3.80;99.90;;;;;;4868036;29;20501;-72
2022/11/20 01:38:30;;;;;;;25.48;17.13;;;3.80;99.90;;;;;;4872038;29;20032;-72
2022/11/20 01:40:56;;;;;;;29.65;17.70;;;3.80;99.90;;;;;;4863392;29;20047;-71
2022/11/20 01:43:23;;;;;;;25.38;16.48;;;3.80;99.90;;;;;;4842542;29;20502;-72
2022/11/20 01:46:03;;;;;;;27.08;16.30;;;3.70;99.90;;;;;;4863450;29;20083;-72
2022/11/20 01:48:40;;;;;;;30.13;17.00;;;3.70;99.90;;;;;;4863620;29;20601;-71
2022/11/20 01:51:12;;;;;;;30.48;17.40;;;3.70;99.90;;;;;;4863207;29;20588;-72
2022/11/20 01:53:38;;;;;;;28.17;17.45;;;3.60;99.90;;;;;;4861852;29;20065;-72
2022/11/20 01:56:07;;;;;;;26.92;17.02;;;3.60;99.90;;;;;;4862036;29;20060;-72
2022/11/20 01:58:38;;;;;;;25.90;16.58;;;3.70;99.90;;;;;;4861098;29;20067;-72
2022/11/20 02:01:04;;;;;;;25.80;16.13;;;3.70;99.90;;;;;;4859124;29;20052;-72
2022/11/20 02:03:30;;;;;;;23.38;16.42;;;3.70;99.90;;;;;;4860589;29;20100;-72
2022/11/20 02:06:07;;;;;;;27.27;16.85;;;3.80;99.90;;;;;;4862072;29;20045;-73
2022/11/20 02:08:35;;;;;;;25.25;15.57;;;3.80;99.90;;;;;;4860018;29;20087;-72
2022/11/20 02:11:00;;;;;;;27.55;16.77;;;3.80;99.90;;;;;;4862051;29;21860;-72
2022/11/20 02:13:44;;;;;;;23.92;15.55;;;3.80;99.90;;;;;;4859221;29;20029;-72
2022/11/20 02:16:24;;;;;;;24.30;15.70;;;3.80;99.90;;;;;;4856719;29;20067;-72
2022/11/20 02:18:50;;;;;;;24.30;15.85;;;3.80;99.90;;;;;;4862819;29;20040;-72
2022/11/20 02:21:34;;;;;;;23.05;14.88;;;3.70;99.90;;;;;;4862126;29;20053;-72
2022/11/20 02:24:08;;;;;;;24.48;15.77;;;3.70;99.90;;;;;;4857358;29;20144;-72
2022/11/20 02:27:01;;;;;;;23.77;15.20;;;3.70;99.90;;;;;;4863254;29;20036;-72
2022/11/20 02:29:41;;;;;;;22.90;15.45;;;3.70;99.90;;;;;;4861500;29;22177;-73
2022/11/20 02:32:19;;;;;;;24.10;15.93;;;3.70;99.90;;;;;;4861987;29;20037;-73
2022/11/20 02:34:44;;;;;;;27.25;15.93;;;3.80;99.90;;;;;;4864265;29;20048;-73
2022/11/20 02:37:10;;;;;;;23.17;15.25;;;3.80;99.90;;;;;;4845327;29;24701;-71
2022/11/20 02:39:36;;;;;;;24.88;15.98;;;3.80;99.90;;;;;;4864706;29;20078;-73
2022/11/20 02:42:02;;;;;;;21.83;15.02;;;3.70;99.90;;;;;;4861272;29;20777;-72
2022/11/20 02:44:27;;;;;;;24.38;15.10;;;3.70;99.90;;;;;;4857021;29;20636;-72
2022/11/20 02:46:53;;;;;;;22.88;14.55;;;3.70;99.90;;;;;;4866287;29;20463;-72
2022/11/20 02:49:18;;;;;;;23.35;14.98;;;3.70;99.90;;;;;;4863126;29;20044;-72
2022/11/20 02:51:44;;;;;;;21.08;14.43;;;3.60;99.90;;;;;;4865098;29;20178;-71
2022/11/20 02:54:10;;;;;;;21.20;14.75;;;3.60;99.90;;;;;;4856983;29;20087;-72
2022/11/20 02:56:38;;;;;;;21.55;14.82;;;3.60;99.90;;;;;;4842387;29;21190;-72
2022/11/20 02:59:04;;;;;;;21.98;14.43;;;3.50;99.90;;;;;;4860600;29;20044;-72
2022/11/20 03:01:29;;;;;;;21.48;14.13;;;3.60;99.90;;;;;;4860280;29;20072;-72
2022/11/20 03:03:55;;;;;;;22.02;15.02;;;3.70;99.90;;;;;;4863821;29;20513;-73
2022/11/20 03:06:21;;;;;;;22.08;15.07;;;3.70;99.90;;;;;;4862452;29;20081;-73
2022/11/20 03:08:48;;;;;;;22.83;14.80;;;3.70;99.90;;;;;;4863634;29;20056;-73
2022/11/20 03:11:13;;;;;;;21.45;14.38;;;3.70;99.90;;;;;;4878043;29;20041;-72
2022/11/20 03:13:39;;;;;;;22.88;14.88;;;3.70;99.90;;;;;;4847820;29;20975;-73
2022/11/20 03:16:11;;;;;;;20.95;14.55;;;3.70;99.90;;;;;;4849332;29;20490;-71
2022/11/20 03:18:37;;;;;;;19.55;13.40;;;3.70;99.90;;;;;;4862908;29;20131;-73
2022/11/20 03:21:03;;;;;;;20.30;13.20;;;3.70;99.90;;;;;;4872775;29;20068;-72
2022/11/20 03:23:30;;;;;;;22.83;14.80;;;3.70;99.90;;;;;;4871876;29;21039;-72
2022/11/20 03:26:06;;;;;;;20.52;13.82;;;3.70;99.90;;;;;;4873332;29;20040;-72
2022/11/20 03:28:32;;;;;;;23.25;14.70;;;3.80;99.90;;;;;;4873613;29;20060;-72
2022/11/20 03:30:57;;;;;;;23.25;14.98;;;3.80;99.90;;;;;;4871805;29;20068;-73
2022/11/20 03:33:23;;;;;;;20.98;14.45;;;3.80;99.90;;;;;;4870079;29;20064;-72
2022/11/20 03:35:48;;;;;;;21.75;14.60;;;3.80;99.90;;;;;;4871973;29;20041;-72
2022/11/20 03:38:14;;;;;;;19.83;13.95;;;3.80;99.90;;;;;;4868449;29;20037;-72
2022/11/20 03:40:39;;;;;;;19.23;13.45;;;3.90;99.90;;;;;;4873237;29;20427;-72
2022/11/20 03:43:05;;;;;;;23.23;14.43;;;3.80;99.90;;;;;;4859881;29;20142;-72
2022/11/20 03:45:30;;;;;;;22.33;14.75;;;3.80;99.90;;;;;;4866165;29;20037;-72
2022/11/20 03:47:56;;;;;;;20.00;13.43;;;3.80;99.90;;;;;;4871325;29;20045;-72
2022/11/20 03:50:22;;;;;;;20.92;13.77;;;3.80;99.90;;;;;;4864493;29;20060;-72
2022/11/20 03:52:47;;;;;;;21.02;14.15;;;3.70;99.90;;;;;;4872444;29;20063;-73
2022/11/20 03:55:13;;;;;;;20.67;14.18;;;3.80;99.90;;;;;;4868365;29;20045;-72
2022/11/20 03:57:38;;;;;;;20.58;13.73;;;3.70;99.90;;;;;;4870693;29;20032;-74
2022/11/20 04:00:05;;;;;;;19.83;14.02;;;3.80;99.90;;;;;;4869156;29;20149;-72
2022/11/20 04:02:31;;;;;;;20.30;13.05;;;3.80;99.90;;;;;;4866882;29;20405;-73
2022/11/20 04:04:56;;;;;;;20.02;13.85;;;3.80;99.90;;;;;;4856939;29;20684;-72
2022/11/20 04:07:22;;;;;;;20.13;13.13;;;3.80;99.90;;;;;;4867607;29;20041;-73
2022/11/20 04:09:48;;;;;;;21.63;13.68;;;3.80;99.90;;;;;;4865367;29;20064;-73
2022/11/20 04:12:13;;;;;;;18.38;12.65;;;3.80;99.90;;;;;;4874992;29;20033;-72
2022/11/20 04:14:39;;;;;;;21.17;13.02;;;3.80;99.90;;;;;;4869243;29;20036;-73
2022/11/20 04:17:04;;;;;;;19.90;12.63;;;3.80;99.90;;;;;;4869094;29;20141;-72
2022/11/20 04:19:30;;;;;;;19.00;12.98;;;3.70;99.90;;;;;;4868932;29;21891;-72
2022/11/20 04:21:56;;;;;;;18.95;12.60;;;3.70;99.90;;;;;;4863753;29;20083;-73
2022/11/20 04:24:21;;;;;;;20.20;12.98;;;3.70;99.90;;;;;;4867197;29;20489;-73
2022/11/20 04:26:47;;;;;;;17.80;12.35;;;3.70;99.90;;;;;;4864371;29;20072;-73
2022/11/20 04:29:12;;;;;;;18.42;12.23;;;3.80;99.90;;;;;;4864504;29;20159;-72
2022/11/20 04:31:38;;;;;;;18.00;12.13;;;3.70;99.90;;;;;;4868149;29;20119;-72
2022/11/20 04:34:06;;;;;;;18.70;13.02;;;3.80;99.90;;;;;;4865265;29;20042;-72
2022/11/20 04:36:32;;;;;;;17.67;11.93;;;3.70;99.90;;;;;;4868400;29;20116;-72
2022/11/20 04:39:00;;;;;;;18.00;12.23;;;3.70;99.90;;;;;;4866867;29;20056;-72
2022/11/20 04:41:33;;;;;;;19.40;12.30;;;3.70;99.90;;;;;;4867676;29;20165;-73
2022/11/20 04:44:02;;;;;;;19.15;12.43;;;3.70;99.90;;;;;;4874767;29;20126;-73
2022/11/20 04:46:29;;;;;;;18.17;11.88;;;3.70;99.90;;;;;;4867091;29;20045;-72
2022/11/20 04:48:55;;;;;;;20.15;12.27;;;3.70;99.90;;;;;;4867854;29;20048;-73
2022/11/20 04:51:21;;;;;;;17.00;11.75;;;3.70;99.90;;;;;;4866462;29;20053;-73
2022/11/20 04:53:47;;;;;;;20.60;12.18;;;3.70;99.90;;;;;;4866704;29;20462;-73
2022/11/20 04:56:13;;;;;;;17.75;11.88;;;3.70;99.90;;;;;;4849596;29;20052;-72
2022/11/20 04:58:39;;;;;;;18.70;13.32;;;3.70;99.90;;;;;;4861277;29;20167;-71
2022/11/20 05:01:25;;;;;;;18.35;12.68;;;3.70;99.90;;;;;;4850261;29;20043;-72
2022/11/20 05:03:51;;;;;;;20.85;13.13;;;3.60;99.90;;;;;;4866966;29;20254;-73
2022/11/20 05:06:19;;;;;;;20.02;12.43;;;3.60;99.90;;;;;;4864410;29;20112;-73
2022/11/20 05:08:45;;;;;;;16.48;11.18;;;3.60;99.90;;;;;;4866632;29;20183;-72
2022/11/20 05:11:17;;;;;;;18.33;12.32;;;3.70;99.90;;;;;;4864344;29;20409;-72
2022/11/20 05:13:43;;;;;;;17.77;11.85;;;3.70;99.90;;;;;;4872589;29;20055;-72
2022/11/20 05:16:14;;;;;;;19.58;12.70;;;3.70;99.90;;;;;;4866527;29;20521;-72
2022/11/20 05:18:40;;;;;;;17.50;12.45;;;3.70;99.90;;;;;;4868986;29;20119;-72
2022/11/20 05:21:07;;;;;;;17.73;11.85;;;3.70;99.90;;;;;;4872639;29;20033;-72
2022/11/20 05:23:33;;;;;;;22.63;12.00;;;3.70;99.90;;;;;;4866083;29;20068;-72
2022/11/20 05:26:00;;;;;;;20.25;11.85;;;3.70;99.90;;;;;;4869068;29;20041;-72
2022/11/20 05:28:28;;;;;;;19.60;11.45;;;3.70;99.90;;;;;;4864280;29;20146;-72
2022/11/20 05:30:54;;;;;;;17.38;12.18;;;3.70;99.90;;;;;;4868945;29;20047;-73
2022/11/20 05:33:19;;;;;;;18.95;12.45;;;3.70;99.90;;;;;;4871555;29;20032;-71
2022/11/20 05:35:45;;;;;;;20.50;12.00;;;3.70;99.90;;;;;;4869287;29;20133;-72
2022/11/20 05:38:11;;;;;;;18.85;11.60;;;3.70;99.90;;;;;;4863293;29;20430;-73
2022/11/20 05:40:36;;;;;;;18.65;11.13;;;3.70;99.90;;;;;;4852559;29;20049;-73
2022/11/20 05:43:02;;;;;;;19.92;13.13;;;3.70;99.90;;;;;;4869966;29;20060;-72
2022/11/20 05:45:28;;;;;;;17.00;11.85;;;3.70;99.90;;;;;;4866885;29;20728;-73
2022/11/20 05:47:53;;;;;;;18.00;11.68;;;3.70;99.90;;;;;;4857110;29;20044;-73
2022/11/20 05:50:19;;;;;;;18.85;12.10;;;3.70;99.90;;;;;;4867270;29;20060;-73
2022/11/20 05:52:44;;;;;;;19.10;11.77;;;3.70;99.90;;;;;;4864392;29;20542;-73
2022/11/20 05:55:10;;;;;;;19.48;12.73;;;3.70;99.90;;;;;;4864209;29;20044;-73
2022/11/20 05:57:36;;;;;;;18.17;12.18;;;3.70;99.90;;;;;;4868114;29;20029;-73
2022/11/20 06:00:02;;;;;;;23.25;14.80;;;3.70;99.90;;;;;;4864800;29;20767;-73
2022/11/20 06:02:28;;;;;;;23.75;15.52;;;3.60;99.90;;;;;;4864204;29;20073;-73
2022/11/20 06:04:54;;;;;;;21.75;15.30;;;3.60;99.90;;;;;;4865775;29;20029;-72
2022/11/20 06:07:19;;;;;;;20.48;13.23;;;3.70;99.90;;;;;;4861591;29;20659;-73
2022/11/20 06:09:45;;;;;;;18.38;12.15;;;3.70;99.90;;;;;;4852384;29;20059;-73
2022/11/20 06:12:10;;;;;;;17.40;12.15;;;3.80;99.90;;;;;;4860804;29;20060;-73
2022/11/20 06:14:36;;;;;;;20.05;13.38;;;3.70;99.90;;;;;;4874645;29;20047;-73
2022/11/20 06:17:02;;;;;;;19.77;12.80;;;3.80;99.90;;;;;;4864600;29;20071;-73
2022/11/20 06:19:27;;;;;;;21.08;12.60;;;3.80;99.90;;;;;;4863080;29;20107;-73
2022/11/20 06:21:53;;;;;;;18.80;12.20;;;3.80;99.90;;;;;;4863829;29;21792;-73
2022/11/20 06:24:18;;;;;;;20.45;13.20;;;3.80;99.90;;;;;;4866189;29;20053;-73
2022/11/20 06:26:44;;;;;;;19.20;12.50;;;3.80;99.90;;;;;;4865494;29;20077;-73
2022/11/20 06:29:10;;;;;;;20.25;12.60;;;3.70;99.90;;;;;;4863655;29;20061;-73
2022/11/20 06:31:37;;;;;;;17.48;12.23;;;3.70;99.90;;;;;;4863383;29;20072;-73
2022/11/20 06:34:05;;;;;;;17.48;12.93;;;3.70;99.90;;;;;;4866099;29;20490;-73
2022/11/20 06:36:30;;;;;;;18.10;11.30;;;3.70;99.90;;;;;;4865651;29;20056;-73
2022/11/20 06:38:56;;;;;;;17.45;11.00;;;3.80;99.90;;;;;;4861347;29;20550;-73
2022/11/20 06:41:22;;;;;;;16.65;10.73;;;3.90;99.90;;;;;;4849593;29;20560;-73
2022/11/20 06:43:48;;;;;;;16.75;11.27;;;3.90;99.90;;;;;;4864068;29;20053;-73
2022/11/20 06:46:17;;;;;;;17.38;11.63;;;3.90;99.90;;;;;;4869071;29;20037;-73
2022/11/20 06:48:42;;;;;;;15.93;11.20;;;3.90;99.90;;;;;;4866609;29;20143;-73
2022/11/20 06:51:09;;;;;;;17.00;11.32;;;4.00;99.90;;;;;;4873122;29;20054;-74
2022/11/20 06:53:35;;;;;;;16.30;11.25;;;3.90;99.90;;;;;;4883998;29;20036;-73
2022/11/20 06:56:01;;;;;;;19.00;11.77;;;4.00;99.90;;;;;;4885634;29;20044;-73
2022/11/20 06:58:28;;;;;;;16.77;10.32;;;4.00;99.90;;;;;;4886621;29;20764;-74
2022/11/20 07:00:57;;;;;;;16.65;10.55;;;4.00;99.90;;;;;;4883436;29;20036;-73
2022/11/20 07:03:23;;;;;;;14.63;10.05;;;4.10;99.90;;;;;;4883013;29;20139;-72
2022/11/20 07:05:48;;;;;;;16.85;11.15;;;4.10;99.90;;;;;;4884202;29;20044;-73
2022/11/20 07:08:14;;;;;;;15.88;10.73;;;4.20;99.90;;;;;;4884160;29;20032;-73
2022/11/20 07:10:39;;;;;;;19.70;11.25;;;4.20;99.90;;;;;;4884927;29;20927;-73
2022/11/20 07:13:06;;;;;;;14.55;10.50;;;4.20;99.90;;;;;;4879473;29;20048;-73
2022/11/20 07:15:32;;;;;;;18.00;11.50;;;4.30;99.90;;;;;;4890369;29;20498;-74
2022/11/20 07:18:01;;;;;;;15.32;9.80;;;4.30;99.90;;;;;;4884212;29;20127;-73
2022/11/20 07:20:27;;;;;;;16.67;10.50;;;4.30;99.90;;;;;;4884700;29;20041;-73
2022/11/20 07:22:57;;;;;;;16.05;11.00;;;4.40;99.90;;;;;;4880596;29;20070;-74
2022/11/20 07:25:23;;;;;;;15.73;10.10;;;4.40;99.90;;;;;;4887436;29;20036;-74
2022/11/20 07:27:49;;;;;;;17.45;11.23;;;4.30;99.90;;;;;;4881415;29;20088;-73
2022/11/20 07:30:16;;;;;;;14.75;10.38;;;4.30;99.90;;;;;;4884405;29;20155;-74
2022/11/20 07:32:41;;;;;;;17.65;11.20;;;4.30;99.90;;;;;;4878977;29;20158;-73
2022/11/20 07:35:07;;;;;;;17.65;10.77;;;4.40;99.90;;;;;;4884332;29;20090;-75
2022/11/20 07:37:36;;;;;;;17.77;11.73;;;4.50;99.90;;;;;;4885323;29;20047;-73
2022/11/20 07:40:02;;;;;;;20.00;11.68;;;4.50;99.90;;;;;;4885038;29;20187;-73
2022/11/20 07:42:28;;;;;;;19.10;11.10;;;4.50;99.90;;;;;;4880951;29;20533;-74
2022/11/20 07:44:53;;;;;;;15.98;10.30;;;4.60;99.90;;;;;;4887841;29;20056;-73
2022/11/20 07:47:19;;;;;;;20.75;11.73;;;4.60;99.90;;;;;;4889957;29;20124;-74
2022/11/20 07:49:44;;;;;;;16.98;11.23;;;4.60;99.90;;;;;;4880581;29;20056;-74
2022/11/20 07:52:10;;;;;;;14.45;9.98;;;4.70;99.90;;;;;;4863006;29;25948;-74
2022/11/20 07:54:35;;;;;;;14.73;9.80;;;4.70;99.90;;;;;;4863303;29;20041;-74
2022/11/20 07:57:01;;;;;;;18.42;12.23;;;4.60;99.90;;;;;;4867968;29;20493;-74
2022/11/20 07:59:27;;;;;;;25.27;17.08;;;4.60;99.90;;;;;;4863824;29;20957;-73
2022/11/20 08:01:52;;;;;;;21.00;14.73;;;4.70;99.90;;;;;;4861942;29;20040;-73
2022/11/20 08:04:18;;;;;;;17.50;10.68;;;4.70;99.90;;;;;;4857883;29;20128;-74
2022/11/20 08:06:43;;;;;;;14.77;10.20;;;4.70;99.90;;;;;;4854005;29;20063;-73
2022/11/20 08:09:09;;;;;;;16.30;11.05;;;4.70;99.90;;;;;;4868807;29;20089;-73
2022/11/20 08:14:19;;;;;;;15.65;10.82;;;4.70;99.90;;;;;;4865196;29;21925;-74
2022/11/20 08:16:49;;;;;;;17.45;12.32;;;4.60;99.90;;;;;;4876033;29;20033;-73
2022/11/20 08:19:16;;;;;;;16.98;11.63;;;4.60;99.90;;;;;;4852905;29;20766;-73
2022/11/20 08:21:45;;;;;;;16.85;9.98;;;4.70;99.90;;;;;;4871201;29;20507;-73
2022/11/20 08:24:11;;;;;;;15.00;10.60;;;4.70;99.90;;;;;;4866973;29;20048;-73
2022/11/20 08:26:38;;;;;;;18.45;12.13;;;4.70;99.90;;;;;;4867038;29;20486;-74
2022/11/20 08:29:05;;;;;;;18.80;13.55;;;4.80;99.90;;;;;;4867409;29;20045;-73
2022/11/20 08:31:31;;;;;;;20.23;13.25;;;4.80;99.90;;;;;;4867918;29;20620;-72
2022/11/20 08:33:56;;;;;;;22.27;15.05;;;4.80;99.90;;;;;;4868554;29;20041;-72
2022/11/20 08:36:24;;;;;;;22.70;14.82;;;4.90;99.90;;;;;;4867565;29;20052;-73
2022/11/20 08:38:51;;;;;;;21.02;13.75;;;4.90;99.90;;;;;;4866573;29;20033;-73
2022/11/20 08:41:23;;;;;;;18.20;12.27;;;4.90;99.90;;;;;;4868489;29;20614;-72
2022/11/20 08:43:50;;;;;;;17.65;12.10;;;4.90;99.90;;;;;;4872405;29;20040;-71
2022/11/20 08:46:16;;;;;;;23.83;16.40;;;4.90;99.90;;;;;;4870686;29;21081;-69
2022/11/20 08:48:42;;;;;;;16.52;11.68;;;4.90;99.90;;;;;;4864936;29;20070;-70
2022/11/20 08:51:07;;;;;;;18.45;12.20;;;4.90;99.90;;;;;;4878498;29;20498;-70
2022/11/20 08:53:33;;;;;;;20.35;12.75;;;4.90;99.90;;;;;;4872184;29;20506;-70
2022/11/20 08:55:59;;;;;;;17.45;11.65;;;4.90;99.90;;;;;;4879694;29;20498;-71
2022/11/20 08:58:25;;;;;;;15.82;11.25;;;5.00;99.90;;;;;;4871401;29;20079;-71
2022/11/20 09:00:51;;;;;;;16.92;12.20;;;5.10;99.90;;;;;;4870840;29;20100;-71
2022/11/20 09:03:17;;;;;;;17.00;11.57;;;5.10;99.90;;;;;;4862346;29;20045;-71
2022/11/20 09:05:42;;;;;;;15.30;11.00;;;5.10;99.90;;;;;;4880196;29;20061;-71
2022/11/20 09:08:08;;;;;;;15.80;10.95;;;5.20;99.90;;;;;;4877778;29;20113;-72
2022/11/20 09:10:34;;;;;;;16.77;12.43;;;5.20;99.90;;;;;;4874667;29;20493;-71
2022/11/20 09:13:00;;;;;;;14.68;10.13;;;5.20;99.90;;;;;;4876633;29;20399;-72
2022/11/20 09:15:26;;;;;;;15.95;10.00;;;5.20;99.90;;;;;;4852801;29;20143;-71
2022/11/20 09:17:56;;;;;;;15.07;10.18;;;5.20;99.90;;;;;;4872784;29;20095;-71
2022/11/20 09:20:22;;;;;;;15.27;10.57;;;5.20;99.90;;;;;;4855825;29;20112;-71
2022/11/20 09:22:48;;;;;;;14.30;9.45;;;5.20;99.90;;;;;;4872922;29;20037;-71
2022/11/20 09:25:13;;;;;;;13.13;9.48;;;5.30;99.90;;;;;;4868106;29;20037;-71
2022/11/20 09:27:41;;;;;;;13.57;9.73;;;5.30;99.90;;;;;;4876732;29;20100;-71
2022/11/20 09:30:07;;;;;;;14.27;9.90;;;5.40;99.90;;;;;;4874851;29;20087;-71
2022/11/20 09:32:33;;;;;;;13.07;9.77;;;5.50;99.90;;;;;;4870544;29;20043;-71
2022/11/20 09:34:58;;;;;;;13.10;10.02;;;5.50;99.90;;;;;;4871529;29;20048;-71
2022/11/20 09:37:24;;;;;;;14.38;9.95;;;5.50;99.90;;;;;;4870892;29;20100;-72
2022/11/20 09:39:49;;;;;;;11.75;8.25;;;5.60;99.90;;;;;;4879926;29;20047;-72
2022/11/20 09:42:18;;;;;;;16.52;11.93;;;5.70;99.90;;;;;;4877265;29;20463;-71
2022/11/20 09:45:22;;;;;;;24.02;15.93;;;5.70;99.90;;;;;;4881366;29;20045;-71
2022/11/20 09:48:14;;;;;;;20.70;14.30;;;5.80;99.90;;;;;;4880529;29;20044;-71
2022/11/20 09:50:50;;;;;;;22.35;16.13;;;5.80;99.90;;;;;;4870389;29;20373;-71
2022/11/20 09:53:24;;;;;;;23.42;16.15;;;5.90;99.90;;;;;;4869251;29;20060;-71
2022/11/20 09:55:51;;;;;;;23.25;15.85;;;5.90;99.90;;;;;;4879734;29;20180;-71
2022/11/20 09:58:32;;;;;;;23.38;16.17;;;5.90;99.90;;;;;;4876160;29;20052;-71
2022/11/20 10:01:12;;;;;;;19.73;13.73;;;6.00;99.90;;;;;;4875422;29;20037;-71
2022/11/20 10:03:54;;;;;;;20.05;12.63;;;6.00;99.90;;;;;;4861362;29;20065;-71
2022/11/20 10:06:34;;;;;;;16.90;12.13;;;6.10;99.90;;;;;;4870313;29;20067;-71
2022/11/20 10:09:11;;;;;;;20.77;13.90;;;6.20;99.90;;;;;;4866143;29;20141;-71
2022/11/20 10:12:04;;;;;;;19.20;13.45;;;6.20;99.90;;;;;;4872684;29;20099;-71
2022/11/20 10:14:53;;;;;;;16.17;11.68;;;6.20;99.90;;;;;;4874899;29;20048;-71
2022/11/20 10:17:55;;;;;;;15.93;10.88;;;6.20;99.90;;;;;;4865593;29;20049;-71
2022/11/20 10:20:29;;;;;;;16.60;11.35;;;6.20;99.90;;;;;;4878285;29;20120;-71
2022/11/20 10:23:17;;;;;;;17.48;12.40;;;6.20;99.90;;;;;;4876639;29;20045;-71
2022/11/20 10:26:12;;;;;;;17.98;12.75;;;6.20;99.90;;;;;;4876444;29;20044;-71
2022/11/20 10:28:53;;;;;;;17.88;12.63;;;6.30;99.90;;;;;;4863923;29;20032;-71
2022/11/20 10:31:35;;;;;;;13.98;9.90;;;6.40;99.90;;;;;;4879821;29;20048;-73
2022/11/20 10:34:08;;;;;;;12.75;9.15;;;6.40;99.90;;;;;;4852208;29;20040;-73
2022/11/20 10:36:44;;;;;;;13.25;9.07;;;6.40;99.90;;;;;;4865170;29;20051;-73
2022/11/20 10:39:26;;;;;;;15.35;10.52;;;6.40;99.90;;;;;;4863740;29;20124;-73
2022/11/20 10:41:53;;;;;;;17.08;12.45;;;6.50;99.90;;;;;;4865443;29;20711;-73
2022/11/20 10:47:13;;;;;;;;;;;6.60;99.90;;;;;;4867848;29;20455;-72
2022/11/20 10:49:40;;;;;;;14.05;10.60;;;6.60;99.90;;;;;;4874717;29;19982;-73
2022/11/20 10:52:30;;;;;;;16.00;10.57;;;6.60;99.90;;;;;;4874209;29;20060;-73
2022/11/20 10:55:50;;;;;;;12.75;9.88;;;6.60;99.90;;;;;;4878337;29;20417;-73
2022/11/20 10:58:43;;;;;;;14.18;9.73;;;6.60;99.90;;;;;;4816211;29;20053;-73
2022/11/20 11:01:21;;;;;;;14.77;9.63;;;6.50;99.90;;;;;;4874235;29;20037;-73
2022/11/20 11:03:48;;;;;;;15.02;10.07;;;6.70;99.90;;;;;;4871125;29;20063;-73
2022/11/20 11:06:46;;;;;;;19.15;12.35;;;6.90;99.90;;;;;;4867683;29;20051;-73
2022/11/20 11:09:28;;;;;;;17.38;12.00;;;7.00;99.90;;;;;;4863298;29;20067;-73
2022/11/20 11:11:53;;;;;;;17.15;12.57;;;7.20;99.90;;;;;;4865414;29;20409;-72
2022/11/20 11:14:19;;;;;;;14.27;11.25;;;7.30;99.90;;;;;;4862161;29;20041;-73
2022/11/20 11:16:57;;;;;;;15.10;11.18;;;7.40;99.90;;;;;;4866546;29;20127;-73
2022/11/20 11:19:24;;;;;;;15.73;10.85;;;7.40;99.90;;;;;;4862658;29;20045;-69
2022/11/20 11:21:56;;;;;;;15.45;11.00;;;7.50;99.90;;;;;;4867630;29;20047;-72
2022/11/20 11:24:29;;;;;;;15.90;11.02;;;7.50;99.90;;;;;;4877525;29;20040;-72
2022/11/20 11:27:03;;;;;;;14.05;9.82;;;7.60;99.90;;;;;;4879134;29;20048;-72
2022/11/20 11:29:30;;;;;;;14.63;9.88;;;7.70;99.90;;;;;;4882414;29;20056;-72
2022/11/20 11:32:13;;;;;;;19.02;12.18;;;7.70;99.90;;;;;;4881807;29;20123;-72
2022/11/20 11:34:39;;;;;;;11.80;9.20;;;7.70;99.90;;;;;;4866392;29;20041;-72
2022/11/20 11:37:10;;;;;;;11.90;9.13;;;7.80;99.90;;;;;;4880899;29;20040;-72
2022/11/20 11:39:41;;;;;;;11.48;8.68;;;7.70;99.90;;;;;;4881861;29;20055;-73
2022/11/20 11:42:17;;;;;;;12.13;8.98;;;7.80;99.90;;;;;;4883915;29;20029;-72
2022/11/20 11:45:06;;;;;;;13.90;9.98;;;7.70;99.90;;;;;;4880254;29;20051;-72
2022/11/20 11:47:43;;;;;;;15.15;9.73;;;7.70;99.90;;;;;;4865634;29;20875;-72
2022/11/20 11:50:09;;;;;;;11.88;9.60;;;7.70;99.90;;;;;;4881591;29;20108;-72
2022/11/20 11:52:53;;;;;;;11.25;8.77;;;7.70;99.90;;;;;;4880397;29;20053;-72
2022/11/20 11:55:40;;;;;;;11.95;8.73;;;7.80;99.90;;;;;;4885801;29;20099;-72
2022/11/20 11:58:26;;;;;;;13.25;9.60;;;7.80;99.90;;;;;;4885576;29;20076;-72
2022/11/20 12:00:58;;;;;;;12.65;9.20;;;7.90;99.90;;;;;;4884841;29;20041;-72
2022/11/20 12:03:38;;;;;;;13.15;9.93;;;8.00;99.90;;;;;;4885358;29;20048;-73
2022/11/20 12:06:25;;;;;;;14.98;10.02;;;8.10;99.90;;;;;;4881324;29;20047;-73
2022/11/20 12:09:02;;;;;;;12.57;9.27;;;8.10;99.90;;;;;;4883868;29;20364;-73
2022/11/20 12:11:53;;;;;;;12.85;9.77;;;8.20;99.90;;;;;;4884470;29;20358;-73
2022/11/20 12:14:27;;;;;;;12.80;9.68;;;8.30;99.90;;;;;;4887333;29;20052;-73
2022/11/20 12:16:55;;;;;;;11.98;9.18;;;8.30;99.90;;;;;;4885172;29;20591;-72
2022/11/20 12:19:21;;;;;;;12.35;9.10;;;8.40;99.90;;;;;;4878047;29;20510;-73
2022/11/20 12:21:52;;;;;;;14.45;10.38;;;8.40;99.90;;;;;;4886335;29;20051;-72
2022/11/20 12:24:42;;;;;;;13.10;9.70;;;8.40;99.90;;;;;;4883200;29;20044;-73
2022/11/20 12:27:29;;;;;;;13.52;9.60;;;8.30;99.90;;;;;;4882027;29;20498;-73
2022/11/20 12:30:10;;;;;;;11.32;8.75;;;8.40;99.90;;;;;;4880896;29;20056;-73
2022/11/20 12:32:57;;;;;;;12.93;9.73;;;8.40;99.90;;;;;;4881936;29;20036;-72
2022/11/20 12:35:44;;;;;;;13.75;10.43;;;8.40;99.90;;;;;;4880224;29;20044;-72
2022/11/20 12:38:48;;;;;;;13.80;10.05;;;8.40;99.90;;;;;;4880467;29;20135;-72
2022/11/20 12:45:10;;;;;;;10.57;7.82;;;8.40;99.90;;;;;;4870912;29;20052;-72
2022/11/20 12:48:00;;;;;;;12.23;9.30;;;8.40;99.90;;;;;;4836953;29;20045;-72
2022/11/20 12:50:50;;;;;;;10.48;8.50;;;8.40;99.90;;;;;;4878359;29;20067;-75
2022/11/20 12:53:36;;;;;;;11.75;8.70;;;8.50;99.90;;;;;;4873982;29;20136;-64
2022/11/20 12:56:14;;;;;;;12.48;9.10;;;8.50;99.90;;;;;;4871322;29;20700;-72
2022/11/20 12:58:50;;;;;;;12.35;8.77;;;8.70;99.90;;;;;;4877477;29;20040;-72
2022/11/20 13:01:40;;;;;;;10.57;8.85;;;8.60;99.90;;;;;;4863710;29;20037;-74